createdAt,value
2023-02-02T00:02:12.703Z,8.01
2023-02-02T00:04:41.587Z,7.75
2023-02-02T00:09:50.143Z,8.18
2023-02-02T00:12:16.802Z,8.14
2023-02-02T00:14:43.434Z,8.11
2023-02-02T00:17:11.205Z,8.17
2023-02-02T00:19:39.270Z,8.08
2023-02-02T00:22:16.057Z,7.88
2023-02-02T00:24:42.580Z,8.08
2023-02-02T00:27:17.318Z,8.11
2023-02-02T00:29:43.911Z,8.14
2023-02-02T00:32:20.996Z,7.39
2023-02-02T00:34:53.320Z,7.74
2023-02-02T00:37:30.492Z,8.22
2023-02-02T00:40:00.567Z,8.13
2023-02-02T00:42:28.214Z,8.14
2023-02-02T00:45:20.332Z,7.96
2023-02-02T00:47:49.587Z,8.08
2023-02-02T00:50:20.911Z,8.14
2023-02-02T00:52:48.855Z,8.25
2023-02-02T00:55:16.861Z,7.56
2023-02-02T00:58:04.231Z,8.24
2023-02-02T01:03:24.180Z,7.41
2023-02-02T01:05:57.897Z,8.23
2023-02-02T01:08:25.072Z,8.13
2023-02-02T01:10:56.724Z,8.27
2023-02-02T01:13:23.427Z,8.15
2023-02-02T01:16:00.989Z,7.35
2023-02-02T01:18:28.870Z,8.20
2023-02-02T01:21:00.547Z,7.83
2023-02-02T01:23:30.879Z,8.13
2023-02-02T01:28:47.638Z,7.29
2023-02-02T01:31:19.702Z,7.19
2023-02-02T01:33:49.726Z,8.00
2023-02-02T01:36:34.917Z,7.64
2023-02-02T01:39:02.123Z,7.73
2023-02-02T01:41:31.805Z,7.66
2023-02-02T01:44:09.372Z,7.47
2023-02-02T01:46:38.008Z,7.46
2023-02-02T01:49:25.217Z,7.51
2023-02-02T01:52:00.226Z,7.56
2023-02-02T01:54:40.424Z,7.52
2023-02-02T01:57:16.280Z,7.36
2023-02-02T01:59:50.583Z,7.35
2023-02-02T02:02:18.033Z,7.43
2023-02-02T02:04:44.742Z,7.51
2023-02-02T02:07:12.211Z,7.61
2023-02-02T02:09:38.857Z,7.37
2023-02-02T02:12:15.739Z,7.25
2023-02-02T02:15:10.158Z,7.26
2023-02-02T02:18:11.179Z,7.19
2023-02-02T02:21:21.713Z,7.13
2023-02-02T02:24:39.322Z,7.07
2023-02-02T02:27:47.005Z,7.09
2023-02-02T02:30:50.672Z,7.23
2023-02-02T02:33:26.012Z,7.36
2023-02-02T02:36:11.537Z,7.55
2023-02-02T02:38:45.112Z,7.65
2023-02-02T02:41:25.940Z,7.69
2023-02-02T02:43:59.272Z,7.63
2023-02-02T02:46:36.845Z,7.75
2023-02-02T02:49:04.026Z,7.85
2023-02-02T02:51:48.573Z,7.68
2023-02-02T02:54:26.810Z,7.89
2023-02-02T02:57:12.573Z,8.07
2023-02-02T02:59:58.705Z,8.02
2023-02-02T03:02:54.558Z,7.99
2023-02-02T03:05:37.625Z,7.98
2023-02-02T03:08:26.315Z,8.06
2023-02-02T03:10:55.994Z,7.80
2023-02-02T03:13:22.818Z,7.79
2023-02-02T03:15:58.404Z,7.92
2023-02-02T03:18:29.797Z,7.89
2023-02-02T03:21:03.475Z,7.14
2023-02-02T03:23:30.256Z,7.91
2023-02-02T03:25:57.316Z,7.41
2023-02-02T03:28:26.506Z,7.65
2023-02-02T03:30:54.896Z,7.36
2023-02-02T03:33:21.846Z,7.77
2023-02-02T03:35:48.460Z,7.80
2023-02-02T03:38:15.234Z,7.69
2023-02-02T03:40:41.845Z,7.66
2023-02-02T03:43:15.043Z,7.02
2023-02-02T03:45:41.691Z,7.55
2023-02-02T03:48:08.466Z,7.21
2023-02-02T03:50:43.503Z,7.32
2023-02-02T03:53:34.591Z,7.33
2023-02-02T03:56:01.169Z,7.24
2023-02-02T03:58:38.924Z,7.27
2023-02-02T04:01:08.271Z,7.26
2023-02-02T04:03:41.139Z,5.94
2023-02-02T04:06:31.430Z,6.57
2023-02-02T04:09:00.375Z,6.63
2023-02-02T04:11:42.613Z,6.85
2023-02-02T04:14:13.157Z,7.01
2023-02-02T04:16:39.849Z,6.87
2023-02-02T04:19:11.962Z,7.00
2023-02-02T04:21:43.786Z,6.83
2023-02-02T04:24:12.218Z,6.31
2023-02-02T04:26:41.106Z,6.01
2023-02-02T04:29:08.483Z,6.50
2023-02-02T04:31:44.567Z,6.50
2023-02-02T04:34:11.133Z,6.52
2023-02-02T04:36:37.914Z,6.40
2023-02-02T04:39:04.622Z,6.29
2023-02-02T04:41:31.164Z,6.42
2023-02-02T04:43:58.892Z,6.31
2023-02-02T04:46:28.745Z,6.24
2023-02-02T04:48:58.136Z,5.75
2023-02-02T04:51:24.636Z,6.53
2023-02-02T04:53:52.183Z,6.12
2023-02-02T04:56:31.426Z,6.41
2023-02-02T04:58:59.760Z,6.39
2023-02-02T05:01:27.976Z,6.19
2023-02-02T05:03:58.011Z,6.40
2023-02-02T05:06:27.383Z,6.49
2023-02-02T05:08:54.009Z,6.25
2023-02-02T05:11:23.190Z,5.84
2023-02-02T05:13:55.142Z,6.48
2023-02-02T05:16:37.742Z,6.52
2023-02-02T05:19:06.509Z,6.47
2023-02-02T05:21:33.208Z,6.33
2023-02-02T05:24:03.853Z,6.44
2023-02-02T05:26:30.696Z,6.18
2023-02-02T05:29:00.394Z,6.54
2023-02-02T05:31:29.792Z,6.50
2023-02-02T05:34:03.596Z,5.75
2023-02-02T05:36:30.468Z,6.56
2023-02-02T05:39:03.034Z,6.35
2023-02-02T05:41:32.851Z,5.54
2023-02-02T05:44:08.996Z,6.66
2023-02-02T05:46:55.504Z,6.52
2023-02-02T05:49:32.101Z,6.18
2023-02-02T05:52:02.427Z,6.50
2023-02-02T05:54:35.400Z,6.83
2023-02-02T05:57:07.327Z,6.54
2023-02-02T05:59:33.853Z,6.05
2023-02-02T06:02:00.482Z,6.81
2023-02-02T06:04:30.424Z,6.61
2023-02-02T06:07:03.934Z,6.13
2023-02-02T06:09:30.558Z,6.94
2023-02-02T06:11:57.178Z,6.96
2023-02-02T06:14:25.344Z,6.84
2023-02-02T06:17:13.163Z,6.95
2023-02-02T06:19:39.837Z,7.04
2023-02-02T06:22:07.624Z,7.02
2023-02-02T06:24:39.681Z,6.94
2023-02-02T06:27:06.355Z,6.97
2023-02-02T06:29:32.945Z,7.04
2023-02-02T06:32:03.526Z,7.05
2023-02-02T06:34:30.226Z,6.50
2023-02-02T06:36:56.784Z,6.07
2023-02-02T06:39:26.059Z,6.91
2023-02-02T06:42:19.307Z,6.90
2023-02-02T06:44:56.182Z,6.97
2023-02-02T06:47:26.997Z,6.50
2023-02-02T06:49:56.023Z,6.82
2023-02-02T06:52:22.678Z,6.03
2023-02-02T06:54:51.912Z,6.88
2023-02-02T06:57:18.403Z,6.93
2023-02-02T06:59:45.094Z,6.98
2023-02-02T07:02:37.722Z,6.99
2023-02-02T07:05:04.556Z,6.96
2023-02-02T07:07:36.279Z,6.98
2023-02-02T07:10:03.184Z,7.05
2023-02-02T07:12:29.901Z,6.79
2023-02-02T07:14:59.749Z,7.07
2023-02-02T07:17:29.654Z,6.68
2023-02-02T07:19:56.279Z,6.91
2023-02-02T07:22:29.317Z,7.17
2023-02-02T07:24:56.885Z,7.19
2023-02-02T07:27:27.402Z,6.83
2023-02-02T07:29:54.162Z,7.21
2023-02-02T07:32:20.719Z,7.00
2023-02-02T07:34:47.716Z,7.07
2023-02-02T07:37:18.951Z,7.09
2023-02-02T07:39:54.894Z,7.21
2023-02-02T07:42:21.533Z,6.97
2023-02-02T07:44:48.257Z,6.76
2023-02-02T07:47:15.007Z,6.68
2023-02-02T07:49:41.972Z,6.53
2023-02-02T07:52:11.297Z,5.76
2023-02-02T07:54:40.831Z,6.60
2023-02-02T07:57:07.568Z,7.15
2023-02-02T07:59:34.231Z,7.18
2023-02-02T08:02:13.150Z,6.54
2023-02-02T08:04:43.117Z,7.37
2023-02-02T08:07:15.590Z,7.39
2023-02-02T08:09:49.583Z,6.89
2023-02-02T08:12:26.665Z,7.36
2023-02-02T08:14:55.023Z,7.51
2023-02-02T08:17:23.193Z,7.41
2023-02-02T08:19:52.896Z,6.03
2023-02-02T08:22:23.767Z,7.43
2023-02-02T08:24:50.371Z,7.39
2023-02-02T08:27:19.868Z,7.66
2023-02-02T08:29:58.812Z,7.70
2023-02-02T08:33:13.380Z,7.80
2023-02-02T08:35:35.750Z,7.89
2023-02-02T08:38:07.681Z,7.77
2023-02-02T08:40:38.104Z,7.73
2023-02-02T08:43:08.489Z,7.45
2023-02-02T08:46:04.139Z,7.95
2023-02-02T08:48:39.062Z,7.04
2023-02-02T08:51:07.388Z,7.85
2023-02-02T08:53:38.692Z,8.13
2023-02-02T08:56:15.477Z,8.20
2023-02-02T08:59:14.142Z,8.28
2023-02-02T09:02:05.884Z,8.37
2023-02-02T09:04:35.757Z,8.44
2023-02-02T09:07:03.679Z,8.53
2023-02-02T09:09:32.526Z,8.49
2023-02-02T09:12:00.836Z,8.25
2023-02-02T09:14:28.208Z,8.35
2023-02-02T09:16:55.033Z,8.83
2023-02-02T09:19:23.943Z,8.62
2023-02-02T09:21:55.889Z,8.64
2023-02-02T09:24:26.212Z,8.92
2023-02-02T09:26:58.387Z,8.98
2023-02-02T09:29:28.043Z,9.18
2023-02-02T09:31:54.761Z,9.05
2023-02-02T09:34:21.479Z,9.34
2023-02-02T09:36:51.907Z,9.41
2023-02-02T09:39:39.473Z,9.09
2023-02-02T09:42:59.143Z,9.49
2023-02-02T09:45:50.144Z,9.83
2023-02-02T09:48:44.022Z,9.86
2023-02-02T09:51:21.715Z,9.97
2023-02-02T09:54:04.991Z,10.24
2023-02-02T09:56:42.443Z,9.95
2023-02-02T09:59:22.794Z,10.37
2023-02-02T10:02:04.219Z,9.90
2023-02-02T10:04:42.059Z,11.05
2023-02-02T10:07:29.286Z,10.97
2023-02-02T10:10:38.345Z,11.50
2023-02-02T10:13:33.539Z,10.71
2023-02-02T10:16:19.430Z,11.72
2023-02-02T10:19:21.202Z,12.13
2023-02-02T10:22:24.854Z,12.28
2023-02-02T10:25:00.603Z,12.39
2023-02-02T10:27:40.943Z,12.69
2023-02-02T10:30:42.863Z,12.86
2023-02-02T10:33:34.043Z,13.11
2023-02-02T10:36:09.022Z,13.34
2023-02-02T10:38:59.214Z,13.50
2023-02-02T10:41:34.159Z,13.33
2023-02-02T10:44:27.458Z,13.87
2023-02-02T10:46:58.544Z,13.58
2023-02-02T10:49:39.682Z,14.19
2023-02-02T10:52:26.810Z,14.25
2023-02-02T10:55:10.881Z,14.65
2023-02-02T10:57:58.110Z,14.84
2023-02-02T11:00:52.823Z,15.01
2023-02-02T11:03:27.623Z,15.20
2023-02-02T11:06:30.671Z,15.05
2023-02-02T11:09:00.587Z,15.21
2023-02-02T11:11:41.632Z,15.47
2023-02-02T11:14:16.232Z,14.38
2023-02-02T11:16:45.190Z,15.60
2023-02-02T11:19:33.119Z,15.64
2023-02-02T11:22:09.948Z,15.79
2023-02-02T11:24:49.938Z,15.68
2023-02-02T11:27:48.047Z,15.78
2023-02-02T11:30:30.609Z,15.54
2023-02-02T11:33:02.389Z,15.21
2023-02-02T11:35:38.726Z,13.98
2023-02-02T11:38:21.080Z,15.16
2023-02-02T11:41:07.156Z,15.00
2023-02-02T11:43:45.541Z,15.02
2023-02-02T11:46:24.659Z,14.74
2023-02-02T11:49:04.143Z,14.64
2023-02-02T11:51:35.208Z,14.85
2023-02-02T11:54:17.249Z,14.92
2023-02-02T11:56:48.476Z,14.90
2023-02-02T11:59:41.597Z,14.85
2023-02-02T12:02:20.725Z,14.80
2023-02-02T12:04:54.100Z,14.78
2023-02-02T12:07:41.262Z,14.76
2023-02-02T12:10:36.808Z,14.70
2023-02-02T12:13:47.083Z,14.70
2023-02-02T12:16:30.014Z,14.81
2023-02-02T12:19:20.632Z,14.52
2023-02-02T12:22:08.229Z,14.61
2023-02-02T12:25:09.505Z,14.83
2023-02-02T12:28:05.063Z,14.88
2023-02-02T12:30:56.809Z,14.63
2023-02-02T12:33:40.456Z,14.77
2023-02-02T12:36:49.266Z,14.69
2023-02-02T12:40:04.301Z,14.94
2023-02-02T12:42:36.377Z,14.94
2023-02-02T12:45:13.247Z,14.93
2023-02-02T12:47:57.979Z,14.77
2023-02-02T12:50:52.264Z,14.95
2023-02-02T12:54:34.781Z,14.54
2023-02-02T12:57:00.878Z,14.82
2023-02-02T13:00:00.013Z,15.17
2023-02-02T13:03:15.714Z,15.06
2023-02-02T13:06:10.787Z,14.86
2023-02-02T13:08:57.625Z,14.83
2023-02-02T13:11:47.907Z,14.62
2023-02-02T13:14:42.104Z,15.22
2023-02-02T13:17:32.262Z,15.20
2023-02-02T13:20:06.888Z,15.02
2023-02-02T13:22:45.616Z,15.25
2023-02-02T13:25:34.853Z,14.98
2023-02-02T13:28:07.301Z,15.25
2023-02-02T13:30:40.330Z,15.21
2023-02-02T13:33:21.639Z,15.16
2023-02-02T13:36:06.088Z,15.22
2023-02-02T13:38:42.012Z,15.22
2023-02-02T13:41:18.843Z,15.13
2023-02-02T13:43:51.532Z,15.23
2023-02-02T13:46:25.917Z,15.29
2023-02-02T13:49:05.109Z,14.96
2023-02-02T13:51:44.366Z,15.22
2023-02-02T13:54:35.318Z,15.18
2023-02-02T13:57:32.179Z,15.38
2023-02-02T14:00:01.888Z,15.44
2023-02-02T14:02:41.953Z,14.96
2023-02-02T14:05:44.771Z,15.24
2023-02-02T14:08:23.930Z,14.08
2023-02-02T14:11:02.477Z,14.86
2023-02-02T14:14:06.713Z,15.06
2023-02-02T14:16:33.195Z,15.14
2023-02-02T14:19:03.562Z,15.18
2023-02-02T14:21:36.402Z,15.28
2023-02-02T14:24:26.246Z,15.36
2023-02-02T14:27:17.169Z,15.36
2023-02-02T14:29:47.147Z,14.09
2023-02-02T14:32:35.940Z,15.33
2023-02-02T14:35:09.985Z,15.42
2023-02-02T14:38:01.560Z,15.38
2023-02-02T14:40:57.048Z,14.90
2023-02-02T14:43:47.234Z,14.95
2023-02-02T14:46:13.879Z,15.30
2023-02-02T14:48:49.748Z,15.07
2023-02-02T14:51:26.597Z,15.18
2023-02-02T14:54:02.400Z,15.02
2023-02-02T14:57:00.297Z,15.06
2023-02-02T14:59:37.847Z,15.02
2023-02-02T15:02:23.807Z,14.78
2023-02-02T15:05:19.750Z,14.85
2023-02-02T15:07:55.166Z,14.44
2023-02-02T15:10:53.928Z,15.38
2023-02-02T15:13:39.757Z,14.78
2023-02-02T15:16:20.105Z,15.05
2023-02-02T15:18:53.221Z,15.34
2023-02-02T15:21:22.143Z,15.06
2023-02-02T15:23:48.930Z,15.20
2023-02-02T15:26:38.061Z,14.57
2023-02-02T15:29:24.416Z,15.18
2023-02-02T15:31:54.981Z,14.85
2023-02-02T15:34:47.191Z,14.90
2023-02-02T15:37:21.268Z,14.88
2023-02-02T15:40:02.231Z,14.61
2023-02-02T15:42:53.093Z,14.34
2023-02-02T15:45:46.453Z,14.66
2023-02-02T15:48:38.711Z,14.06
2023-02-02T15:51:21.988Z,14.25
2023-02-02T15:53:51.805Z,14.47
2023-02-02T15:56:30.330Z,14.07
2023-02-02T15:59:04.149Z,14.05
2023-02-02T16:01:46.202Z,13.72
2023-02-02T16:04:22.443Z,14.01
2023-02-02T16:06:50.061Z,13.07
2023-02-02T16:09:28.874Z,12.96
2023-02-02T16:11:59.308Z,13.64
2023-02-02T16:14:26.089Z,12.85
2023-02-02T16:16:56.704Z,13.66
2023-02-02T16:19:28.027Z,13.45
2023-02-02T16:22:07.445Z,13.49
2023-02-02T16:24:48.375Z,13.09
2023-02-02T16:27:23.816Z,13.32
2023-02-02T16:29:52.037Z,13.17
2023-02-02T16:32:48.292Z,13.12
2023-02-02T16:35:43.014Z,12.24
2023-02-02T16:38:36.146Z,12.78
2023-02-02T16:41:11.610Z,13.08
2023-02-02T16:43:46.251Z,12.98
2023-02-02T16:46:17.492Z,12.89
2023-02-02T16:49:19.633Z,12.67
2023-02-02T16:52:27.086Z,12.70
2023-02-02T16:55:19.185Z,12.34
2023-02-02T16:57:47.766Z,11.10
2023-02-02T17:03:10.010Z,12.11
2023-02-02T17:05:48.012Z,11.87
2023-02-02T17:08:14.672Z,11.89
2023-02-02T17:10:44.793Z,11.89
2023-02-02T17:13:30.279Z,12.03
2023-02-02T17:15:57.500Z,11.99
2023-02-02T17:18:24.542Z,10.60
2023-02-02T17:21:07.419Z,11.84
2023-02-02T17:23:41.564Z,11.77
2023-02-02T17:26:20.252Z,11.56
2023-02-02T17:28:56.647Z,11.50
2023-02-02T17:31:23.387Z,11.15
2023-02-02T17:33:58.964Z,11.29
2023-02-02T17:36:30.758Z,10.76
2023-02-02T17:38:57.368Z,11.58
2023-02-02T17:41:24.084Z,11.62
2023-02-02T17:43:56.655Z,11.59
2023-02-02T17:46:30.986Z,11.36
2023-02-02T17:49:01.222Z,11.55
2023-02-02T17:51:34.729Z,11.86
2023-02-02T17:54:17.785Z,11.62
2023-02-02T17:56:50.444Z,11.54
2023-02-02T17:59:20.957Z,11.43
2023-02-02T18:01:57.357Z,11.13
2023-02-02T18:04:27.336Z,10.84
2023-02-02T18:06:54.302Z,11.00
2023-02-02T18:09:23.087Z,11.15
2023-02-02T18:11:49.944Z,11.07
2023-02-02T18:14:22.756Z,11.05
2023-02-02T18:16:49.233Z,10.90
2023-02-02T18:19:15.831Z,10.66
2023-02-02T18:21:42.384Z,10.87
2023-02-02T18:24:16.837Z,10.99
2023-02-02T18:26:52.993Z,10.99
2023-02-02T18:29:20.359Z,11.12
2023-02-02T18:31:47.156Z,10.80
2023-02-02T18:34:24.512Z,11.01
2023-02-02T18:36:57.572Z,10.69
2023-02-02T18:39:42.651Z,10.83
2023-02-02T18:42:11.376Z,10.77
2023-02-02T18:44:38.646Z,10.83
2023-02-02T18:47:05.771Z,10.80
2023-02-02T18:49:40.448Z,10.46
2023-02-02T18:52:15.504Z,10.71
2023-02-02T18:55:00.228Z,10.61
2023-02-02T18:57:33.578Z,10.32
2023-02-02T19:00:03.078Z,10.43
2023-02-02T19:02:32.376Z,9.08
2023-02-02T19:05:17.283Z,8.85
2023-02-02T19:07:55.914Z,10.19
2023-02-02T19:10:24.415Z,9.78
2023-02-02T19:13:20.546Z,10.08
2023-02-02T19:15:49.800Z,8.89
2023-02-02T19:18:25.919Z,10.23
2023-02-02T19:20:58.264Z,10.28
2023-02-02T19:23:31.949Z,10.33
2023-02-02T19:25:59.428Z,10.15
2023-02-02T19:28:34.811Z,10.27
2023-02-02T19:31:03.027Z,10.14
2023-02-02T19:33:46.256Z,10.04
2023-02-02T19:36:18.853Z,9.70
2023-02-02T19:38:47.536Z,9.97
2023-02-02T19:41:25.580Z,9.92
2023-02-02T19:44:05.757Z,9.24
2023-02-02T19:46:38.811Z,9.47
2023-02-02T19:49:38.036Z,9.84
2023-02-02T19:52:21.929Z,9.36
2023-02-02T19:54:53.757Z,9.27
2023-02-02T19:57:36.185Z,9.31
2023-02-02T20:00:34.259Z,9.35
2023-02-02T20:03:23.715Z,9.32
2023-02-02T20:05:59.574Z,9.43
2023-02-02T20:08:42.417Z,9.27
2023-02-02T20:11:44.849Z,9.58
2023-02-02T20:14:38.706Z,9.40
2023-02-02T20:17:24.842Z,8.35
2023-02-02T20:19:55.189Z,8.10
2023-02-02T20:22:36.680Z,8.59
2023-02-02T20:25:17.593Z,7.85
2023-02-02T20:27:44.652Z,8.58
2023-02-02T20:30:35.770Z,7.64
2023-02-02T20:33:07.538Z,7.41
2023-02-02T20:35:45.228Z,9.32
2023-02-02T20:38:24.643Z,9.14
2023-02-02T20:40:53.440Z,9.10
2023-02-02T20:43:20.838Z,7.84
2023-02-02T20:45:49.807Z,7.75
2023-02-02T20:48:17.754Z,9.05
2023-02-02T20:50:46.826Z,9.08
2023-02-02T20:53:20.783Z,8.54
2023-02-02T20:55:53.026Z,9.32
2023-02-02T20:58:34.711Z,9.15
2023-02-02T21:01:08.514Z,9.27
2023-02-02T21:03:36.911Z,9.23
2023-02-02T21:06:12.494Z,9.07
2023-02-02T21:08:46.049Z,8.61
2023-02-02T21:11:21.571Z,8.13
2023-02-02T21:13:57.523Z,8.74
2023-02-02T21:16:38.546Z,8.41
2023-02-02T21:19:12.311Z,9.06
2023-02-02T21:21:43.522Z,9.77
2023-02-02T21:24:11.591Z,9.92
2023-02-02T21:26:38.315Z,9.88
2023-02-02T21:29:11.058Z,9.99
2023-02-02T21:31:44.335Z,10.26
2023-02-02T21:34:13.932Z,10.41
2023-02-02T21:36:47.673Z,10.52
2023-02-02T21:39:29.777Z,10.10
2023-02-02T21:42:31.341Z,10.62
2023-02-02T21:45:03.957Z,10.36
2023-02-02T21:48:02.632Z,10.66
2023-02-02T21:50:48.740Z,10.66
2023-02-02T21:53:27.833Z,10.61
2023-02-02T21:56:01.590Z,10.35
2023-02-02T21:58:46.103Z,10.69
2023-02-02T22:01:27.969Z,10.57
2023-02-02T22:04:07.765Z,10.40
2023-02-02T22:06:38.097Z,10.19
2023-02-02T22:09:26.174Z,10.50
2023-02-02T22:11:55.493Z,10.34
2023-02-02T22:14:37.223Z,10.31
2023-02-02T22:17:43.401Z,10.39
2023-02-02T22:20:34.788Z,9.99
2023-02-02T22:23:06.767Z,9.72
2023-02-02T22:25:38.941Z,9.60
2023-02-02T22:28:49.266Z,8.46
2023-02-02T22:31:22.753Z,9.39
2023-02-02T22:33:59.802Z,9.52
2023-02-02T22:36:32.135Z,9.57
2023-02-02T22:39:01.080Z,9.33
2023-02-02T22:41:37.222Z,9.27
2023-02-02T22:44:11.403Z,9.37
2023-02-02T22:46:45.094Z,8.76
2023-02-02T22:49:24.119Z,8.53
2023-02-02T22:52:10.764Z,9.30
2023-02-02T22:54:37.552Z,9.42
2023-02-02T22:57:07.713Z,9.24
2023-02-02T22:59:39.480Z,8.93
2023-02-02T23:02:22.739Z,9.26
2023-02-02T23:05:07.524Z,8.92
2023-02-02T23:07:36.770Z,9.08
2023-02-02T23:10:04.858Z,8.90
2023-02-02T23:12:36.386Z,9.07
2023-02-02T23:15:13.137Z,9.18
2023-02-02T23:17:42.976Z,8.80
2023-02-02T23:20:14.317Z,8.75
2023-02-02T23:23:01.073Z,7.83
2023-02-02T23:25:29.064Z,9.09
2023-02-02T23:28:14.935Z,8.81
2023-02-02T23:30:41.636Z,8.98
2023-02-02T23:33:08.243Z,9.20
2023-02-02T23:35:42.956Z,9.30
2023-02-02T23:38:16.636Z,9.67
2023-02-02T23:43:32.953Z,9.86
2023-02-02T23:46:09.420Z,9.52
2023-02-02T23:48:43.987Z,10.08
2023-02-02T23:51:23.452Z,10.07
2023-02-02T23:54:12.287Z,10.17
2023-02-02T23:56:52.342Z,9.75
2023-02-02T23:59:26.913Z,9.55
